Time;durP1;ratioP1;P1;durP2;ratioP2;P2;SDS_P1;SDS_P2;PMS_P1;PMS_P2;Temp;Humidity;BMP_temperature;BMP_pressure;BME280_temperature;BME280_humidity;BME280_pressure;Samples;Min_cycle;Max_cycle;Signal;HPM_P1;HPM_P2
2023/12/12 00:00:32;;;;;;;30.17;7.85;;;7.80;90.70;;;;;;9168906;19;20384;-73
2023/12/12 00:03:39;;;;;;;24.73;7.85;;;7.80;90.70;;;;;;9178466;19;20023;-72
2023/12/12 00:06:45;;;;;;;16.48;7.03;;;8.00;92.10;;;;;;9182581;19;20011;-72
2023/12/12 00:09:52;;;;;;;20.27;7.03;;;8.10;92.90;;;;;;9181775;19;20567;-73
2023/12/12 00:13:00;;;;;;;22.95;7.65;;;8.10;93.90;;;;;;9183045;19;20097;-72
2023/12/12 00:16:09;;;;;;;29.58;7.65;;;8.00;92.10;;;;;;9181501;19;20015;-73
2023/12/12 00:19:14;;;;;;;20.25;7.13;;;8.10;92.90;;;;;;9180646;19;20462;-73
2023/12/12 00:22:22;;;;;;;15.85;7.18;;;8.20;92.90;;;;;;9181150;19;20021;-74
2023/12/12 00:25:28;;;;;;;19.85;7.30;;;8.20;93.50;;;;;;9181545;19;20018;-72
2023/12/12 00:28:39;;;;;;;22.30;7.10;;;;;;;;;;9173990;19;20024;-73
2023/12/12 00:31:44;;;;;;;16.73;7.30;;;8.00;90.40;;;;;;9181048;19;20079;-72
2023/12/12 00:34:52;;;;;;;18.60;6.88;;;8.00;90.70;;;;;;9179957;19;20022;-73
2023/12/12 00:37:58;;;;;;;26.55;7.90;;;8.10;90.70;;;;;;9180121;19;20044;-72
2023/12/12 00:41:07;;;;;;;23.83;8.30;;;8.10;90.70;;;;;;9178126;19;20027;-75
2023/12/12 00:44:19;;;;;;;25.52;7.53;;;8.10;90.70;;;;;;9175535;19;20044;-74
2023/12/12 00:47:34;;;;;;;25.65;7.82;;;8.10;90.70;;;;;;9181135;19;20610;-73
2023/12/12 00:50:40;;;;;;;28.80;7.47;;;8.20;90.70;;;;;;9180873;19;20484;-73
2023/12/12 00:53:48;;;;;;;14.52;7.10;;;8.20;90.70;;;;;;9179458;19;20025;-72
2023/12/12 00:56:53;;;;;;;18.50;7.53;;;8.20;90.70;;;;;;9180155;19;20017;-72
2023/12/12 01:00:03;;;;;;;23.85;9.38;;;8.20;90.70;;;;;;9179067;19;20361;-72
2023/12/12 01:03:09;;;;;;;21.35;7.65;;;8.20;90.70;;;;;;9178373;19;20015;-72
2023/12/12 01:06:24;;;;;;;27.83;7.95;;;8.30;91.00;;;;;;9179761;19;20092;-73
2023/12/12 01:09:33;;;;;;;25.77;7.40;;;8.30;90.80;;;;;;9179151;19;20018;-73
2023/12/12 01:12:41;;;;;;;21.85;8.48;;;8.30;90.80;;;;;;9178214;19;20011;-72
2023/12/12 01:15:49;;;;;;;20.85;7.68;;;8.30;90.70;;;;;;9176501;19;20023;-74
2023/12/12 01:18:57;;;;;;;18.73;8.18;;;8.30;90.70;;;;;;9177574;19;20017;-72
2023/12/12 01:22:02;;;;;;;23.40;8.10;;;8.30;90.70;;;;;;9176540;19;20040;-72
2023/12/12 01:25:10;;;;;;;23.27;8.18;;;8.30;90.70;;;;;;9178343;19;20923;-73
2023/12/12 01:28:16;;;;;;;21.50;7.78;;;8.40;90.80;;;;;;9173604;19;20014;-73
2023/12/12 01:31:26;;;;;;;22.83;8.80;;;8.40;90.70;;;;;;9178946;19;20343;-73
2023/12/12 01:34:32;;;;;;;21.33;8.93;;;8.40;90.80;;;;;;9178671;19;20027;-72
2023/12/12 01:37:39;;;;;;;27.42;8.60;;;8.40;90.80;;;;;;9178311;19;20081;-72
2023/12/12 01:40:47;;;;;;;24.85;8.07;;;8.40;90.80;;;;;;9177110;19;20006;-71
2023/12/12 01:43:55;;;;;;;20.40;8.68;;;8.40;90.80;;;;;;9177179;19;20010;-72
2023/12/12 01:47:03;;;;;;;17.27;8.13;;;8.40;90.80;;;;;;9178158;19;20052;-74
2023/12/12 01:50:11;;;;;;;16.73;8.10;;;8.40;90.80;;;;;;9177517;19;20038;-72
2023/12/12 01:53:19;;;;;;;17.15;7.63;;;8.40;90.80;;;;;;9178571;19;20646;-71
2023/12/12 01:56:26;;;;;;;14.48;7.32;;;8.40;90.80;;;;;;9177347;19;20018;-72
2023/12/12 01:59:33;;;;;;;19.35;7.93;;;8.50;90.80;;;;;;9177038;19;20034;-73
2023/12/12 02:02:44;;;;;;;20.83;8.15;;;8.50;90.80;;;;;;9174798;19;20487;-73
2023/12/12 02:05:51;;;;;;;22.15;8.35;;;8.50;90.90;;;;;;9174641;19;20021;-73
2023/12/12 02:09:04;;;;;;;21.98;8.90;;;8.60;91.60;;;;;;9177303;19;20555;-73
2023/12/12 02:12:11;;;;;;;19.73;7.72;;;;;;;;;;9176653;19;20391;-73
2023/12/12 02:15:18;;;;;;;14.25;6.90;;;8.50;90.80;;;;;;9176347;19;20026;-73
2023/12/12 02:18:26;;;;;;;24.52;8.18;;;8.60;91.20;;;;;;9175712;19;20107;-73
2023/12/12 02:21:37;;;;;;;25.83;8.18;;;8.60;91.20;;;;;;9176112;19;20011;-73
2023/12/12 02:24:42;;;;;;;20.20;8.07;;;8.60;91.30;;;;;;9174572;19;20018;-72
2023/12/12 02:27:51;;;;;;;24.38;8.23;;;8.70;91.50;;;;;;9170718;19;20014;-73
2023/12/12 02:30:57;;;;;;;19.70;7.32;;;;;;;;;;9175468;19;20026;-72
2023/12/12 02:34:05;;;;;;;17.95;8.55;;;8.60;90.80;;;;;;9174751;19;20025;-74
2023/12/12 02:37:14;;;;;;;18.98;8.50;;;8.70;91.10;;;;;;9174372;19;20011;-73
2023/12/12 02:40:21;;;;;;;19.88;7.88;;;8.60;91.20;;;;;;9175326;19;20011;-73
2023/12/12 02:43:27;;;;;;;15.25;8.27;;;8.60;91.40;;;;;;9176111;19;20515;-73
2023/12/12 02:46:35;;;;;;;21.73;9.80;;;8.80;92.40;;;;;;9173944;19;20015;-73
2023/12/12 02:49:41;;;;;;;23.73;9.05;;;8.70;92.40;;;;;;9175759;19;20022;-74
2023/12/12 02:52:51;;;;;;;21.52;8.73;;;8.80;92.60;;;;;;9175040;19;20022;-73
2023/12/12 02:55:57;;;;;;;24.08;8.05;;;8.70;91.60;;;;;;9175667;19;20022;-73
2023/12/12 02:59:04;;;;;;;14.40;7.75;;;8.80;91.80;;;;;;9175904;19;20455;-73
2023/12/12 03:02:09;;;;;;;17.70;8.02;;;8.80;92.40;;;;;;9173482;19;20019;-73
2023/12/12 03:05:18;;;;;;;19.40;7.60;;;8.90;93.10;;;;;;9172210;19;20383;-74
2023/12/12 03:08:27;;;;;;;15.95;8.20;;;8.80;93.80;;;;;;9172803;19;20045;-73
2023/12/12 03:11:35;;;;;;;16.77;7.72;;;8.80;93.80;;;;;;9173982;19;20014;-75
2023/12/12 03:14:43;;;;;;;15.88;7.80;;;8.90;93.80;;;;;;9173817;19;20006;-73
2023/12/12 03:17:53;;;;;;;22.85;8.50;;;8.90;94.20;;;;;;9175162;19;20010;-73
2023/12/12 03:20:59;;;;;;;23.35;8.25;;;8.60;90.90;;;;;;9172605;19;20014;-75
2023/12/12 03:24:11;;;;;;;19.33;6.85;;;8.70;91.10;;;;;;9173175;19;20471;-73
2023/12/12 03:27:17;;;;;;;16.73;7.70;;;8.70;91.40;;;;;;9168435;19;20022;-73
2023/12/12 03:30:25;;;;;;;15.60;7.32;;;8.70;91.20;;;;;;9173228;19;20030;-73
2023/12/12 03:33:30;;;;;;;17.20;7.05;;;8.70;91.20;;;;;;9173881;19;20010;-73
2023/12/12 03:36:38;;;;;;;17.05;7.85;;;8.70;91.20;;;;;;9173503;19;20018;-72
2023/12/12 03:39:46;;;;;;;17.17;7.13;;;8.70;91.40;;;;;;9182763;19;20371;-72
2023/12/12 03:42:53;;;;;;;11.98;6.22;;;8.70;91.40;;;;;;9180123;19;20050;-74
2023/12/12 03:45:59;;;;;;;18.42;8.63;;;8.70;91.20;;;;;;9183128;19;20054;-74
2023/12/12 03:49:08;;;;;;;15.60;7.47;;;8.70;91.50;;;;;;9182351;19;20034;-73
2023/12/12 03:52:14;;;;;;;14.27;6.75;;;8.80;91.50;;;;;;9182223;19;20015;-73
2023/12/12 03:55:24;;;;;;;16.52;7.18;;;8.70;91.80;;;;;;9180786;19;20010;-73
2023/12/12 03:58:29;;;;;;;14.93;6.60;;;8.90;92.50;;;;;;9182370;19;20010;-74
2023/12/12 04:01:37;;;;;;;15.32;7.78;;;8.90;93.60;;;;;;9179521;19;20026;-72
2023/12/12 04:04:43;;;;;;;21.38;8.02;;;8.90;93.00;;;;;;9181681;19;20014;-72
2023/12/12 04:07:50;;;;;;;22.60;8.13;;;8.70;91.00;;;;;;9182197;19;20015;-72
2023/12/12 04:10:58;;;;;;;16.55;7.68;;;8.80;91.40;;;;;;9183589;19;20029;-74
2023/12/12 04:14:06;;;;;;;19.20;8.23;;;8.80;91.50;;;;;;9181606;19;20018;-76
2023/12/12 04:17:11;;;;;;;19.63;8.10;;;9.00;92.30;;;;;;9181639;19;20010;-76
2023/12/12 04:20:19;;;;;;;18.58;8.13;;;8.80;93.90;;;;;;9181271;19;20025;-76
2023/12/12 04:23:27;;;;;;;24.58;10.32;;;8.90;93.30;;;;;;9179237;19;20014;-74
2023/12/12 04:26:37;;;;;;;18.35;9.90;;;8.90;93.50;;;;;;9176092;19;20349;-74
2023/12/12 04:29:43;;;;;;;24.83;9.60;;;8.90;93.70;;;;;;9180539;19;20010;-74
2023/12/12 04:32:50;;;;;;;28.13;11.45;;;8.90;92.50;;;;;;9179935;19;20023;-75
2023/12/12 04:35:56;;;;;;;23.80;11.48;;;8.90;92.50;;;;;;9178899;19;20350;-76
2023/12/12 04:39:05;;;;;;;26.17;12.13;;;9.00;93.00;;;;;;9180900;19;20014;-74
2023/12/12 04:42:15;;;;;;;24.00;12.75;;;9.00;93.20;;;;;;9179705;19;20018;-77
2023/12/12 04:45:24;;;;;;;26.50;12.05;;;8.80;91.20;;;;;;9180137;19;20035;-75
2023/12/12 04:48:30;;;;;;;29.13;13.85;;;8.70;91.10;;;;;;9179163;19;20025;-75
2023/12/12 04:51:38;;;;;;;26.73;11.90;;;8.70;91.10;;;;;;9180958;19;20019;-75
2023/12/12 04:54:43;;;;;;;26.08;11.57;;;8.70;91.10;;;;;;9179960;19;20407;-74
2023/12/12 04:57:54;;;;;;;23.35;12.10;;;8.70;91.10;;;;;;9179349;19;20029;-75
2023/12/12 05:00:59;;;;;;;27.05;11.77;;;8.70;91.10;;;;;;9180956;19;20021;-75
2023/12/12 05:04:07;;;;;;;23.13;11.00;;;8.70;91.10;;;;;;9176792;19;20022;-76
2023/12/12 05:07:15;;;;;;;27.02;11.65;;;8.70;91.10;;;;;;9180018;19;20090;-75
2023/12/12 05:10:22;;;;;;;26.05;12.77;;;8.70;91.00;;;;;;9179496;19;20361;-75
2023/12/12 05:13:31;;;;;;;23.52;11.77;;;8.70;91.10;;;;;;9179255;19;20018;-75
2023/12/12 05:16:38;;;;;;;24.85;11.77;;;8.70;91.20;;;;;;9179616;19;20026;-75
2023/12/12 05:19:44;;;;;;;28.60;12.07;;;8.70;91.20;;;;;;9178792;19;20102;-75
2023/12/12 05:22:51;;;;;;;21.73;11.32;;;8.70;91.20;;;;;;9177093;19;20034;-75
2023/12/12 05:25:57;;;;;;;18.17;10.35;;;8.60;91.30;;;;;;9178313;19;20014;-75
2023/12/12 05:29:07;;;;;;;19.35;10.25;;;8.60;91.20;;;;;;9172287;19;20025;-76
2023/12/12 05:32:13;;;;;;;26.65;11.52;;;8.60;91.30;;;;;;9176865;19;20066;-76
2023/12/12 05:35:22;;;;;;;20.45;11.20;;;8.50;91.20;;;;;;9178273;19;20022;-76
2023/12/12 05:38:27;;;;;;;20.77;10.85;;;8.50;91.20;;;;;;9178206;19;20018;-75
2023/12/12 05:41:35;;;;;;;21.48;10.63;;;8.50;91.30;;;;;;9179082;19;20014;-75
2023/12/12 05:44:43;;;;;;;23.08;11.45;;;8.50;91.40;;;;;;9175661;19;20047;-76
2023/12/12 05:47:50;;;;;;;21.67;10.93;;;8.40;91.50;;;;;;9175731;19;20018;-75
2023/12/12 05:50:56;;;;;;;25.98;11.15;;;8.50;91.90;;;;;;9177957;19;20010;-76
2023/12/12 05:54:03;;;;;;;25.95;11.25;;;8.40;92.20;;;;;;9177154;19;20017;-75
2023/12/12 05:57:09;;;;;;;21.60;11.13;;;8.30;92.60;;;;;;9176001;19;20144;-75
2023/12/12 06:00:20;;;;;;;25.73;10.45;;;8.40;93.60;;;;;;9176254;19;20026;-76
2023/12/12 06:03:26;;;;;;;35.08;11.80;;;8.10;90.60;;;;;;9174941;19;20019;-75
2023/12/12 06:06:33;;;;;;;23.70;11.52;;;8.20;91.00;;;;;;9176881;19;20026;-75
2023/12/12 06:09:39;;;;;;;26.58;11.32;;;8.60;91.00;;;;;;9177045;19;20026;-75
2023/12/12 06:12:47;;;;;;;19.08;9.77;;;8.00;90.80;;;;;;9176531;19;20022;-76
2023/12/12 06:15:56;;;;;;;24.17;10.98;;;8.00;90.90;;;;;;9177346;19;20030;-75
2023/12/12 06:19:05;;;;;;;27.60;10.32;;;8.00;90.90;;;;;;9174624;19;20376;-75
2023/12/12 06:22:11;;;;;;;23.48;10.98;;;7.90;90.90;;;;;;9175913;19;20006;-75
2023/12/12 06:25:22;;;;;;;25.15;9.98;;;7.90;90.90;;;;;;9176141;19;20928;-75
2023/12/12 06:28:27;;;;;;;19.60;9.88;;;7.90;90.90;;;;;;9170117;19;20010;-75
2023/12/12 06:31:38;;;;;;;20.15;10.52;;;7.80;90.80;;;;;;9176396;19;20022;-74
2023/12/12 06:34:45;;;;;;;23.45;9.65;;;7.80;90.90;;;;;;9173651;19;20078;-73
2023/12/12 06:37:53;;;;;;;23.17;10.65;;;7.70;90.80;;;;;;9173802;19;20017;-73
2023/12/12 06:40:58;;;;;;;16.33;10.75;;;7.70;90.80;;;;;;9173439;19;20395;-73
2023/12/12 06:44:06;;;;;;;22.77;10.10;;;7.70;90.90;;;;;;9174495;19;20029;-72
2023/12/12 06:47:15;;;;;;;19.42;10.23;;;7.60;90.80;;;;;;9176436;19;20034;-73
2023/12/12 06:50:23;;;;;;;20.98;10.32;;;7.60;91.10;;;;;;9175071;19;20007;-73
2023/12/12 06:53:28;;;;;;;25.60;10.15;;;7.50;90.80;;;;;;9173926;19;20022;-73
2023/12/12 06:56:36;;;;;;;20.00;9.82;;;7.50;91.00;;;;;;9173499;19;20014;-73
2023/12/12 06:59:41;;;;;;;19.50;9.95;;;7.50;90.80;;;;;;9175630;19;20022;-73
2023/12/12 07:02:52;;;;;;;23.23;9.85;;;7.40;90.80;;;;;;9174330;19;20022;-73
2023/12/12 07:05:57;;;;;;;18.42;9.80;;;7.40;90.80;;;;;;9175224;19;20016;-73
2023/12/12 07:09:05;;;;;;;23.73;9.40;;;7.30;90.80;;;;;;9172970;19;20021;-73
2023/12/12 07:12:11;;;;;;;16.52;9.10;;;7.30;90.80;;;;;;9177013;19;20389;-73
2023/12/12 07:15:18;;;;;;;17.98;8.68;;;7.20;90.80;;;;;;9179846;19;20011;-73
2023/12/12 07:18:27;;;;;;;17.02;8.35;;;7.20;90.80;;;;;;9182117;19;20056;-73
2023/12/12 07:21:41;;;;;;;20.13;8.07;;;7.20;90.80;;;;;;9180782;19;20018;-72
2023/12/12 07:24:46;;;;;;;16.38;8.48;;;7.10;90.80;;;;;;9177066;19;20030;-74
2023/12/12 07:27:54;;;;;;;18.77;8.63;;;7.10;90.80;;;;;;9168314;19;20379;-74
2023/12/12 07:31:00;;;;;;;16.55;8.55;;;7.10;90.80;;;;;;9180220;19;20018;-72
2023/12/12 07:34:11;;;;;;;14.85;8.00;;;7.00;90.80;;;;;;9182502;19;20018;-71
2023/12/12 07:37:17;;;;;;;18.70;8.23;;;6.90;90.70;;;;;;9181928;19;20384;-69
2023/12/12 07:40:25;;;;;;;16.25;7.53;;;6.90;90.80;;;;;;9179379;19;20014;-74
2023/12/12 07:43:30;;;;;;;22.65;8.18;;;6.90;90.80;;;;;;9180158;19;20456;-73
2023/12/12 07:46:40;;;;;;;14.05;7.40;;;6.80;90.70;;;;;;9182122;19;20022;-74
2023/12/12 07:49:48;;;;;;;19.85;7.20;;;6.80;90.70;;;;;;9179636;19;20011;-72
2023/12/12 07:52:56;;;;;;;17.38;6.80;;;6.80;90.80;;;;;;9180596;19;20017;-71
2023/12/12 07:56:02;;;;;;;17.63;7.22;;;6.70;90.70;;;;;;9184022;19;20556;-73
2023/12/12 07:59:09;;;;;;;15.73;6.88;;;6.70;91.00;;;;;;9183455;19;20029;-74
2023/12/12 08:02:15;;;;;;;19.40;7.40;;;6.70;90.80;;;;;;9183568;19;20082;-74
2023/12/12 08:05:26;;;;;;;15.90;7.75;;;6.70;90.80;;;;;;9182583;19;20392;-75
2023/12/12 08:08:34;;;;;;;12.90;7.03;;;6.60;90.80;;;;;;9181281;19;20043;-74
2023/12/12 08:11:41;;;;;;;22.52;7.63;;;6.60;90.80;;;;;;9180543;19;20011;-76
2023/12/12 08:14:47;;;;;;;19.27;7.68;;;6.60;90.80;;;;;;9184058;19;20062;-73
2023/12/12 08:17:56;;;;;;;22.13;7.50;;;6.60;90.80;;;;;;9182731;19;20373;-73
2023/12/12 08:21:06;;;;;;;20.70;7.53;;;6.60;90.80;;;;;;9182913;19;20022;-73
2023/12/12 08:24:14;;;;;;;23.60;7.95;;;6.60;90.80;;;;;;9179781;19;20022;-73
2023/12/12 08:27:20;;;;;;;35.42;9.32;;;6.60;90.80;;;;;;9179207;19;20035;-75
2023/12/12 08:30:28;;;;;;;42.08;10.07;;;6.60;90.80;;;;;;9182210;19;20023;-75
2023/12/12 08:33:33;;;;;;;34.05;11.07;;;6.60;90.80;;;;;;9183911;19;20022;-75
2023/12/12 08:36:44;;;;;;;34.80;10.05;;;6.60;90.90;;;;;;9181004;19;20015;-73
2023/12/12 08:39:50;;;;;;;27.42;9.13;;;6.70;91.20;;;;;;9182527;19;20011;-75
2023/12/12 08:42:58;;;;;;;31.95;10.15;;;6.70;90.90;;;;;;9181033;19;20030;-73
2023/12/12 08:46:04;;;;;;;29.80;9.77;;;6.70;91.20;;;;;;9180191;19;20021;-73
2023/12/12 08:49:12;;;;;;;29.45;9.98;;;6.70;90.90;;;;;;9182951;19;20018;-73
2023/12/12 08:52:20;;;;;;;33.50;10.13;;;6.80;90.90;;;;;;9180136;19;20018;-73
2023/12/12 08:55:27;;;;;;;33.33;11.40;;;6.80;90.90;;;;;;9181135;19;20843;-73
2023/12/12 08:58:33;;;;;;;37.95;10.85;;;6.90;91.00;;;;;;9180734;19;20444;-73
2023/12/12 09:01:42;;;;;;;28.63;11.15;;;6.90;91.00;;;;;;9180944;19;20019;-74
2023/12/12 09:04:58;;;;;;;26.02;10.43;;;6.90;91.00;;;;;;9180533;19;20033;-79
2023/12/12 09:08:13;;;;;;;34.60;11.10;;;7.00;91.00;;;;;;9178469;19;20014;-79
2023/12/12 09:11:23;;;;;;;27.60;10.20;;;7.00;91.00;;;;;;9176749;19;20394;-79
2023/12/12 09:14:45;;;;;;;26.92;10.68;;;7.00;91.00;;;;;;9181264;19;20010;-80
2023/12/12 09:17:52;;;;;;;42.03;12.45;;;7.10;91.10;;;;;;9180978;19;20019;-78
2023/12/12 09:21:26;;;;;;;54.05;11.10;;;7.10;91.00;;;;;;9180367;19;20014;-79
2023/12/12 09:24:48;;;;;;;28.48;11.32;;;7.10;91.00;;;;;;9179417;19;20023;-78
2023/12/12 09:28:02;;;;;;;32.30;10.85;;;7.20;91.00;;;;;;9177620;19;21161;-78
2023/12/12 09:31:12;;;;;;;23.60;10.88;;;7.20;91.00;;;;;;9177333;19;20074;-81
2023/12/12 09:34:26;;;;;;;36.72;12.25;;;7.30;91.10;;;;;;9175376;19;20026;-79
2023/12/12 09:37:35;;;;;;;36.72;11.02;;;7.30;91.00;;;;;;9177192;19;20107;-80
2023/12/12 09:41:00;;;;;;;;;;;;;;;;;;;;;
2023/12/12 09:44:13;;;;;;;40.88;9.98;;;7.40;91.10;;;;;;9181232;19;20007;-80
2023/12/12 09:47:25;;;;;;;27.10;10.57;;;7.60;91.10;;;;;;9179830;19;20015;-78
2023/12/12 09:50:35;;;;;;;33.60;10.77;;;7.50;91.10;;;;;;9181485;19;20021;-78
2023/12/12 09:53:46;;;;;;;32.40;10.70;;;7.50;91.10;;;;;;9180897;19;20026;-74
2023/12/12 09:56:56;;;;;;;36.53;10.70;;;7.60;91.10;;;;;;9177333;19;20048;-73
2023/12/12 10:00:08;;;;;;;36.30;11.63;;;7.60;91.10;;;;;;9178984;19;20015;-72
2023/12/12 10:03:16;;;;;;;41.22;12.05;;;7.60;91.10;;;;;;9180129;19;20014;-73
2023/12/12 10:06:27;;;;;;;48.85;12.70;;;7.70;91.40;;;;;;9177372;19;20015;-74
2023/12/12 10:09:36;;;;;;;44.20;13.95;;;7.80;91.20;;;;;;9179363;19;20103;-73
2023/12/12 10:12:47;;;;;;;44.15;13.77;;;7.80;91.20;;;;;;9179451;19;20029;-73
2023/12/12 10:15:53;;;;;;;49.55;13.88;;;7.80;91.20;;;;;;9178423;19;20010;-74
2023/12/12 10:19:02;;;;;;;51.97;13.55;;;7.90;91.20;;;;;;9175552;19;20007;-73
2023/12/12 10:22:08;;;;;;;51.20;13.80;;;7.90;91.20;;;;;;9175337;19;20014;-73
2023/12/12 10:25:22;;;;;;;43.17;13.88;;;8.00;91.20;;;;;;9176689;19;20089;-72
2023/12/12 10:28:30;;;;;;;56.65;13.23;;;8.10;91.20;;;;;;9173360;19;20015;-72
2023/12/12 10:31:38;;;;;;;48.22;15.30;;;8.10;91.20;;;;;;9176904;19;20014;-74
2023/12/12 10:34:48;;;;;;;50.75;15.77;;;8.20;91.30;;;;;;9176458;19;20015;-71
2023/12/12 10:37:55;;;;;;;45.72;15.38;;;8.20;91.30;;;;;;9177951;19;20038;-74
2023/12/12 10:41:16;;;;;;;56.35;17.65;;;8.30;91.30;;;;;;9178125;19;20019;-73
2023/12/12 10:44:33;;;;;;;59.50;16.80;;;8.40;91.40;;;;;;9177493;19;20094;-73
2023/12/12 10:47:43;;;;;;;55.80;16.83;;;8.40;91.30;;;;;;9174570;19;20022;-74
2023/12/12 10:50:55;;;;;;;51.47;16.23;;;8.50;91.40;;;;;;9174742;19;20103;-71
2023/12/12 10:54:03;;;;;;;52.42;15.95;;;8.50;91.50;;;;;;9177768;19;20021;-71
2023/12/12 10:57:12;;;;;;;47.17;14.00;;;8.60;91.40;;;;;;9175148;19;20006;-72
2023/12/12 11:00:21;;;;;;;56.10;14.32;;;8.70;91.40;;;;;;9175647;19;20018;-73
2023/12/12 11:03:28;;;;;;;46.80;14.30;;;8.70;91.40;;;;;;9176971;19;20014;-74
2023/12/12 11:06:35;;;;;;;51.78;14.10;;;8.80;91.40;;;;;;9175733;19;20519;-74
2023/12/12 11:09:45;;;;;;;49.83;13.18;;;8.90;91.40;;;;;;9176708;19;20369;-71
2023/12/12 11:12:55;;;;;;;50.95;12.73;;;8.90;91.40;;;;;;9177730;19;20052;-72
2023/12/12 11:16:09;;;;;;;53.42;14.63;;;9.00;91.40;;;;;;9173852;19;20013;-72
2023/12/12 11:19:18;;;;;;;52.97;14.90;;;9.00;91.40;;;;;;9174887;19;20014;-73
2023/12/12 11:22:42;;;;;;;40.53;14.70;;;9.00;91.40;;;;;;9173902;19;20018;-74
2023/12/12 11:25:48;;;;;;;56.67;15.00;;;9.10;91.70;;;;;;9176415;19;20016;-73
2023/12/12 11:28:57;;;;;;;64.90;15.90;;;9.10;91.40;;;;;;9171928;19;20014;-73
2023/12/12 11:32:07;;;;;;;48.08;16.00;;;9.20;91.40;;;;;;9172782;19;20781;-74
2023/12/12 11:35:34;;;;;;;50.75;14.27;;;9.20;91.40;;;;;;9172431;19;20011;-74
2023/12/12 11:38:41;;;;;;;63.05;15.75;;;9.30;91.40;;;;;;9171426;19;20015;-74
2023/12/12 11:41:50;;;;;;;53.13;16.48;;;9.30;91.40;;;;;;9174068;19;20022;-72
2023/12/12 11:44:58;;;;;;;54.40;15.52;;;9.30;91.40;;;;;;9173504;19;20107;-75
2023/12/12 11:48:11;;;;;;;52.03;16.08;;;9.40;91.40;;;;;;9170661;19;20011;-72
2023/12/12 11:51:49;;;;;;;63.60;17.80;;;9.40;91.40;;;;;;9171503;19;20002;-72
2023/12/12 11:54:57;;;;;;;62.55;17.77;;;9.40;91.40;;;;;;9172950;19;20018;-72
2023/12/12 11:58:04;;;;;;;56.42;18.90;;;9.50;91.40;;;;;;9174178;19;20034;-73
2023/12/12 12:01:13;;;;;;;72.30;19.67;;;9.50;91.40;;;;;;9180217;19;21678;-73
2023/12/12 12:04:21;;;;;;;70.15;18.23;;;9.50;91.40;;;;;;9182627;19;20013;-73
2023/12/12 12:07:29;;;;;;;80.07;20.17;;;9.60;91.70;;;;;;9179049;19;20022;-72
2023/12/12 12:10:35;;;;;;;70.75;20.75;;;9.60;91.40;;;;;;9182256;19;20044;-74
2023/12/12 12:13:44;;;;;;;64.68;18.95;;;9.60;91.40;;;;;;9181316;19;20103;-73
2023/12/12 12:16:53;;;;;;;63.92;17.83;;;9.70;91.40;;;;;;9181367;19;20018;-72
2023/12/12 12:20:03;;;;;;;64.15;17.75;;;9.70;91.40;;;;;;9182825;19;20677;-75
2023/12/12 12:23:10;;;;;;;58.53;18.35;;;9.80;91.40;;;;;;9182167;19;20014;-72
2023/12/12 12:26:18;;;;;;;58.72;17.77;;;9.80;91.40;;;;;;9182797;19;20021;-72
2023/12/12 12:29:24;;;;;;;70.03;17.73;;;9.80;91.40;;;;;;9183135;19;20014;-74
2023/12/12 12:32:34;;;;;;;61.53;18.20;;;9.80;91.40;;;;;;9181168;19;20056;-73
2023/12/12 12:35:55;;;;;;;69.43;17.70;;;9.90;91.50;;;;;;9181135;19;20024;-76
2023/12/12 12:39:09;;;;;;;71.10;17.70;;;9.90;91.50;;;;;;9181205;19;20018;-76
2023/12/12 12:42:15;;;;;;;60.53;16.80;;;9.90;91.50;;;;;;9180883;19;20014;-76
2023/12/12 12:45:27;;;;;;;62.97;17.95;;;9.90;91.40;;;;;;9181087;19;20366;-77
2023/12/12 12:48:36;;;;;;;54.65;17.40;;;10.00;91.50;;;;;;9171567;19;20026;-75
2023/12/12 12:51:50;;;;;;;60.15;15.85;;;10.00;91.40;;;;;;9181669;19;20026;-77
2023/12/12 12:54:58;;;;;;;71.20;16.60;;;10.00;91.40;;;;;;9177660;19;20036;-77
2023/12/12 12:58:07;;;;;;;60.88;16.73;;;10.00;91.40;;;;;;9180599;19;20019;-76
2023/12/12 13:01:13;;;;;;;60.25;17.27;;;10.00;91.40;;;;;;9181084;19;20048;-75
2023/12/12 13:04:23;;;;;;;66.90;18.25;;;10.10;91.50;;;;;;9178322;19;20019;-76
2023/12/12 13:07:32;;;;;;;75.63;19.48;;;10.00;91.40;;;;;;9175408;19;20019;-76
2023/12/12 13:10:40;;;;;;;69.35;20.40;;;10.10;91.50;;;;;;9175441;19;20046;-77
2023/12/12 13:13:55;;;;;;;65.75;19.38;;;10.10;91.50;;;;;;9180517;19;20358;-76
2023/12/12 13:17:06;;;;;;;65.05;18.60;;;10.20;91.50;;;;;;9177725;19;20321;-75
2023/12/12 13:20:15;;;;;;;75.88;17.10;;;10.20;91.50;;;;;;9178778;19;20018;-76
2023/12/12 13:23:30;;;;;;;60.42;18.70;;;10.20;91.50;;;;;;9176714;19;20002;-76
2023/12/12 13:26:36;;;;;;;56.65;16.13;;;10.30;91.50;;;;;;9174753;19;20044;-77
2023/12/12 13:29:47;;;;;;;65.47;15.55;;;10.20;91.50;;;;;;9175872;19;20022;-76
2023/12/12 13:32:52;;;;;;;59.35;16.67;;;10.30;91.50;;;;;;9176372;19;20010;-76
2023/12/12 13:36:01;;;;;;;54.83;16.17;;;10.30;91.50;;;;;;9176989;19;20014;-76
2023/12/12 13:39:12;;;;;;;54.63;16.10;;;10.30;91.50;;;;;;9176617;19;20040;-76
2023/12/12 13:42:25;;;;;;;64.72;16.98;;;10.30;91.50;;;;;;9179763;19;20036;-76
2023/12/12 13:45:31;;;;;;;61.33;15.32;;;10.30;91.40;;;;;;9178991;19;20043;-74
2023/12/12 13:48:39;;;;;;;55.55;16.75;;;10.30;91.40;;;;;;9176972;19;20653;-72
2023/12/12 13:51:44;;;;;;;60.10;15.90;;;10.30;91.50;;;;;;9177775;19;20053;-72
2023/12/12 13:54:57;;;;;;;66.53;14.68;;;10.30;91.40;;;;;;9176595;19;20021;-72
2023/12/12 13:58:06;;;;;;;55.25;14.55;;;10.30;91.40;;;;;;9176092;19;20014;-74
2023/12/12 14:01:14;;;;;;;48.85;14.57;;;10.40;91.50;;;;;;9178064;19;20015;-74
2023/12/12 14:04:20;;;;;;;49.85;14.05;;;10.40;91.50;;;;;;9176850;19;20749;-73
2023/12/12 14:07:29;;;;;;;45.72;12.52;;;10.40;91.50;;;;;;9175156;19;20021;-73
2023/12/12 14:10:38;;;;;;;45.67;13.75;;;10.50;91.50;;;;;;9174481;19;20006;-72
2023/12/12 14:13:46;;;;;;;46.83;12.90;;;10.40;91.50;;;;;;9175378;19;20392;-75
2023/12/12 14:16:52;;;;;;;44.05;12.13;;;10.40;91.50;;;;;;9177296;19;20593;-72
2023/12/12 14:20:03;;;;;;;49.08;11.43;;;10.40;91.50;;;;;;9176433;19;20025;-73
2023/12/12 14:23:09;;;;;;;27.80;10.02;;;10.50;91.50;;;;;;9175833;19;20006;-73
2023/12/12 14:26:23;;;;;;;35.30;10.05;;;10.50;91.40;;;;;;9175194;19;20480;-74
2023/12/12 14:29:29;;;;;;;36.92;10.35;;;10.50;91.40;;;;;;9174137;19;20007;-72
2023/12/12 14:32:37;;;;;;;28.65;7.97;;;10.50;91.40;;;;;;9175783;19;20531;-75
2023/12/12 14:35:43;;;;;;;33.70;8.88;;;10.50;91.40;;;;;;9175699;19;20015;-73
2023/12/12 14:38:51;;;;;;;29.65;7.80;;;10.60;91.40;;;;;;9174154;19;20013;-72
2023/12/12 14:41:59;;;;;;;36.15;7.72;;;10.50;91.40;;;;;;9172255;19;20021;-73
2023/12/12 14:45:08;;;;;;;39.47;7.47;;;10.60;91.40;;;;;;9177590;19;20786;-72
2023/12/12 14:48:14;;;;;;;26.17;6.63;;;10.50;91.30;;;;;;9175744;19;20025;-73
2023/12/12 14:51:26;;;;;;;28.90;6.72;;;10.50;91.30;;;;;;9175897;19;20025;-74
2023/12/12 14:54:33;;;;;;;26.65;6.97;;;10.50;91.30;;;;;;9175856;19;20026;-76
2023/12/12 14:57:45;;;;;;;20.20;6.35;;;10.60;91.30;;;;;;9177286;19;20037;-75
2023/12/12 15:00:51;;;;;;;31.27;6.45;;;10.50;91.20;;;;;;9178046;19;20448;-75
2023/12/12 15:03:59;;;;;;;27.52;7.43;;;10.50;91.20;;;;;;9176864;19;20011;-74
2023/12/12 15:07:05;;;;;;;22.45;6.43;;;10.50;91.20;;;;;;9177784;19;20527;-74
2023/12/12 15:10:13;;;;;;;33.50;8.07;;;10.50;91.20;;;;;;9175147;19;20658;-75
2023/12/12 15:13:21;;;;;;;31.83;6.93;;;10.40;91.20;;;;;;9175913;19;20032;-76
2023/12/12 15:16:28;;;;;;;24.30;7.30;;;10.50;91.20;;;;;;9176943;19;20011;-76
2023/12/12 15:19:34;;;;;;;29.58;6.80;;;10.40;91.20;;;;;;9177557;19;20098;-75
2023/12/12 15:22:44;;;;;;;28.60;6.32;;;10.50;91.20;;;;;;9176142;19;20026;-75
2023/12/12 15:25:52;;;;;;;40.35;7.05;;;10.40;91.30;;;;;;9174510;19;20401;-77
2023/12/12 15:29:06;;;;;;;31.75;6.28;;;10.40;91.20;;;;;;9171324;19;20447;-76
2023/12/12 15:32:12;;;;;;;28.73;6.65;;;10.40;91.20;;;;;;9174713;19;20056;-75
2023/12/12 15:35:21;;;;;;;26.20;6.30;;;10.50;91.30;;;;;;9185174;19;20042;-75
2023/12/12 15:38:28;;;;;;;27.45;6.60;;;10.40;91.40;;;;;;9184356;19;20022;-72
2023/12/12 15:41:36;;;;;;;33.38;12.95;;;10.60;93.80;;;;;;9183869;19;20021;-73
2023/12/12 15:44:44;;;;;;;40.80;12.45;;;10.60;94.20;;;;;;9184841;19;20019;-74
2023/12/12 15:47:52;;;;;;;29.73;8.27;;;10.50;93.90;;;;;;9184342;19;20014;-73
2023/12/12 15:50:57;;;;;;;31.98;7.60;;;10.60;92.80;;;;;;9183595;19;20014;-74
2023/12/12 15:54:05;;;;;;;29.58;7.50;;;10.60;93.40;;;;;;9182826;19;20466;-73
2023/12/12 15:57:13;;;;;;;31.63;7.28;;;10.50;94.30;;;;;;9183912;19;20026;-74
2023/12/12 16:00:24;;;;;;;25.50;6.72;;;10.50;92.20;;;;;;9185351;19;20015;-74
2023/12/12 16:03:30;;;;;;;26.13;6.97;;;10.50;92.60;;;;;;9185040;19;20484;-74
2023/12/12 16:06:37;;;;;;;30.20;6.13;;;10.50;93.10;;;;;;9183178;19;20022;-74
2023/12/12 16:09:43;;;;;;;29.00;5.63;;;10.50;93.20;;;;;;9182333;19;20018;-74
2023/12/12 16:12:50;;;;;;;28.48;7.50;;;10.50;94.60;;;;;;9184517;19;20022;-74